createdAt,value
2022-09-25T00:00:44.671Z,96.18
2022-09-25T00:02:46.200Z,96.61
2022-09-25T00:04:47.639Z,96.95
2022-09-25T00:06:49.311Z,96.89
2022-09-25T00:08:51.395Z,96.79
2022-09-25T00:10:52.815Z,97.13
2022-09-25T00:12:54.270Z,97.36
2022-09-25T00:14:56.113Z,97.34
2022-09-25T00:16:57.578Z,97.61
2022-09-25T00:19:18.631Z,97.28
2022-09-25T00:21:20.118Z,97.35
2022-09-25T00:23:21.545Z,97.54
2022-09-25T00:25:23.005Z,97.86
2022-09-25T00:27:24.448Z,98.05
2022-09-25T00:29:25.907Z,98.23
2022-09-25T00:31:27.934Z,98.34
2022-09-25T00:33:29.418Z,98.09
2022-09-25T00:35:30.853Z,98.52
2022-09-25T00:37:36.619Z,98.63
2022-09-25T00:39:38.097Z,98.53
2022-09-25T00:41:39.622Z,98.63
2022-09-25T00:43:45.439Z,98.62
2022-09-25T00:45:46.986Z,98.50
2022-09-25T00:48:01.731Z,98.62
2022-09-25T00:50:12.874Z,98.42
2022-09-25T00:52:14.479Z,98.72
2022-09-25T00:54:31.510Z,98.54
2022-09-25T00:56:41.370Z,98.91
2022-09-25T00:58:43.053Z,98.94
2022-09-25T01:00:45.664Z,98.53
2022-09-25T01:02:55.446Z,98.79
2022-09-25T01:05:01.744Z,99.04
2022-09-25T01:07:03.450Z,98.95
2022-09-25T01:09:05.552Z,99.20
2022-09-25T01:11:07.104Z,99.30
2022-09-25T01:13:09.934Z,98.92
2022-09-25T01:15:14.887Z,99.13
2022-09-25T01:17:45.579Z,98.93
2022-09-25T01:20:11.761Z,99.44
2022-09-25T01:22:50.811Z,99.03
2022-09-25T01:25:28.503Z,99.06
2022-09-25T01:28:16.396Z,99.08
2022-09-25T01:30:19.966Z,99.18
2022-09-25T01:32:41.850Z,99.28
2022-09-25T01:35:09.482Z,99.41
2022-09-25T01:37:19.573Z,99.06
2022-09-25T01:39:27.199Z,99.18
2022-09-25T01:41:45.098Z,99.22
2022-09-25T01:43:57.072Z,99.43
2022-09-25T01:46:08.597Z,99.15
2022-09-25T01:48:13.747Z,99.38
2022-09-25T01:50:22.780Z,99.63
2022-09-25T01:52:32.928Z,99.11
2022-09-25T01:54:41.667Z,99.11
2022-09-25T01:56:48.204Z,98.99
2022-09-25T01:59:18.334Z,99.13
2022-09-25T02:01:26.752Z,99.09
2022-09-25T02:03:36.130Z,99.45
2022-09-25T02:05:50.693Z,98.97
2022-09-25T02:07:59.514Z,99.05
2022-09-25T02:10:08.396Z,99.33
2022-09-25T02:12:34.484Z,99.18
2022-09-25T02:14:43.540Z,98.83
2022-09-25T02:16:48.158Z,99.25
2022-09-25T02:19:08.474Z,98.98
2022-09-25T02:21:24.886Z,99.17
2022-09-25T02:23:45.021Z,99.44
2022-09-25T02:25:52.610Z,99.29
2022-09-25T02:27:54.264Z,99.56
2022-09-25T02:29:58.252Z,99.57
2022-09-25T02:32:04.881Z,99.24
2022-09-25T02:34:12.069Z,99.59
2022-09-25T02:36:19.145Z,99.40
2022-09-25T02:38:21.596Z,99.55
2022-09-25T02:40:33.892Z,99.29
2022-09-25T02:42:54.863Z,99.23
2022-09-25T02:45:02.318Z,99.10
2022-09-25T02:47:21.133Z,99.11
2022-09-25T02:49:56.026Z,99.06
2022-09-25T02:52:14.462Z,99.01
2022-09-25T02:54:22.731Z,99.49
2022-09-25T02:56:38.337Z,99.23
2022-09-25T02:58:48.711Z,99.24
2022-09-25T03:00:53.241Z,99.13
2022-09-25T03:02:59.634Z,98.88
2022-09-25T03:05:03.677Z,98.98
2022-09-25T03:07:06.260Z,99.25
2022-09-25T03:09:10.963Z,99.09
2022-09-25T03:11:15.546Z,98.96
2022-09-25T03:13:23.253Z,98.71
2022-09-25T03:15:24.793Z,98.83
2022-09-25T03:17:26.604Z,99.04
2022-09-25T03:19:29.809Z,98.65
2022-09-25T03:21:32.012Z,98.47
2022-09-25T03:23:33.500Z,98.64
2022-09-25T03:25:36.739Z,98.56
2022-09-25T03:27:38.205Z,98.61
2022-09-25T03:29:39.658Z,98.46
2022-09-25T03:31:42.620Z,98.53
2022-09-25T03:33:44.847Z,98.38
2022-09-25T03:35:46.279Z,98.30
2022-09-25T03:37:47.717Z,98.41
2022-09-25T03:39:49.173Z,98.68
2022-09-25T03:41:50.640Z,98.42
2022-09-25T03:43:52.541Z,98.65
2022-09-25T03:45:54.038Z,98.39
2022-09-25T03:47:55.505Z,98.64
2022-09-25T03:49:56.925Z,98.50
2022-09-25T03:52:00.139Z,98.75
2022-09-25T03:54:04.217Z,98.77
2022-09-25T03:56:12.221Z,98.77
2022-09-25T03:58:14.816Z,98.78
2022-09-25T04:00:16.893Z,99.01
2022-09-25T04:02:18.345Z,99.13
2022-09-25T04:04:19.889Z,99.12
2022-09-25T04:06:24.364Z,99.25
2022-09-25T04:08:27.494Z,99.13
2022-09-25T04:10:28.942Z,99.28
2022-09-25T04:12:30.392Z,99.21
2022-09-25T04:14:31.888Z,99.19
2022-09-25T04:16:33.389Z,99.17
2022-09-25T04:18:35.539Z,98.87
2022-09-25T04:20:38.410Z,99.07
2022-09-25T04:22:39.908Z,99.26
2022-09-25T04:24:50.253Z,99.25
2022-09-25T04:26:53.775Z,99.42
2022-09-25T04:28:55.646Z,99.43
2022-09-25T04:30:57.127Z,99.33
2022-09-25T04:33:17.469Z,99.27
2022-09-25T04:35:18.973Z,99.47
2022-09-25T04:37:23.240Z,99.46
2022-09-25T04:39:24.703Z,99.56
2022-09-25T04:41:26.255Z,99.54
2022-09-25T04:43:34.356Z,99.48
2022-09-25T04:45:36.960Z,99.63
2022-09-25T04:47:38.418Z,99.64
2022-09-25T04:49:39.844Z,99.71
2022-09-25T04:51:41.281Z,99.74
2022-09-25T04:53:43.116Z,99.64
2022-09-25T04:55:46.229Z,99.57
2022-09-25T04:57:58.845Z,99.81
2022-09-25T05:00:01.939Z,99.66
2022-09-25T05:02:03.499Z,99.82
2022-09-25T05:04:08.497Z,99.93
2022-09-25T05:06:10.407Z,99.78
2022-09-25T05:08:11.867Z,99.93
2022-09-25T05:10:14.617Z,99.92
2022-09-25T05:12:16.145Z,99.66
2022-09-25T05:14:17.657Z,99.77
2022-09-25T05:16:20.153Z,99.75
2022-09-25T05:18:24.083Z,99.85
2022-09-25T05:20:25.511Z,99.49
2022-09-25T05:22:27.088Z,99.90
2022-09-25T05:24:28.542Z,99.78
2022-09-25T05:26:30.273Z,99.99
2022-09-25T05:28:32.926Z,99.93
2022-09-25T05:30:36.690Z,99.91
2022-09-25T05:32:38.176Z,100.00
2022-09-25T05:34:40.264Z,100.00
2022-09-25T05:36:42.716Z,99.99
2022-09-25T05:38:44.382Z,100.00
2022-09-25T05:40:45.939Z,100.00
2022-09-25T05:42:48.505Z,100.00
2022-09-25T05:44:49.975Z,100.00
2022-09-25T05:46:51.423Z,100.00
2022-09-25T05:48:52.876Z,100.00
2022-09-25T05:50:55.981Z,100.00
2022-09-25T05:53:02.083Z,100.00
2022-09-25T05:55:06.140Z,100.00
2022-09-25T05:57:07.660Z,99.80
2022-09-25T05:59:09.372Z,99.75
2022-09-25T06:01:11.043Z,99.68
2022-09-25T06:03:12.591Z,99.87
2022-09-25T06:05:14.740Z,99.71
2022-09-25T06:07:16.306Z,99.96
2022-09-25T06:09:17.752Z,100.00
2022-09-25T06:11:19.180Z,100.00
2022-09-25T06:13:25.360Z,100.00
2022-09-25T06:15:28.212Z,100.00
2022-09-25T06:17:29.716Z,100.00
2022-09-25T06:19:31.193Z,100.00
2022-09-25T06:21:32.674Z,100.00
2022-09-25T06:23:34.245Z,100.00
2022-09-25T06:25:36.495Z,100.00
2022-09-25T06:27:38.055Z,100.00
2022-09-25T06:29:39.470Z,100.00
2022-09-25T06:31:41.079Z,100.00
2022-09-25T06:33:43.822Z,100.00
2022-09-25T06:35:50.037Z,100.00
2022-09-25T06:37:52.103Z,100.00
2022-09-25T06:39:53.575Z,100.00
2022-09-25T06:41:55.045Z,100.00
2022-09-25T06:43:56.839Z,100.00
2022-09-25T06:46:04.548Z,100.00
2022-09-25T06:48:10.072Z,100.00
2022-09-25T06:50:11.796Z,100.00
2022-09-25T06:52:13.263Z,100.00
2022-09-25T06:54:14.762Z,100.00
2022-09-25T06:56:16.215Z,100.00
2022-09-25T06:58:20.908Z,100.00
2022-09-25T07:00:22.432Z,100.00
2022-09-25T07:02:42.234Z,100.00
2022-09-25T07:04:43.727Z,100.00
2022-09-25T07:06:45.787Z,100.00
2022-09-25T07:08:48.875Z,100.00
2022-09-25T07:10:52.327Z,100.00
2022-09-25T07:12:53.813Z,100.00
2022-09-25T07:14:56.021Z,100.00
2022-09-25T07:16:57.473Z,99.96
2022-09-25T07:19:03.447Z,99.57
2022-09-25T07:21:07.078Z,99.58
2022-09-25T07:23:08.597Z,99.28
2022-09-25T07:25:11.033Z,99.26
2022-09-25T07:27:12.553Z,98.73
2022-09-25T07:29:14.120Z,98.39
2022-09-25T07:31:21.938Z,98.29
2022-09-25T07:33:25.036Z,97.86
2022-09-25T07:35:27.232Z,98.08
2022-09-25T07:37:28.801Z,97.21
2022-09-25T07:39:30.406Z,96.96
2022-09-25T07:41:32.589Z,96.42
2022-09-25T07:43:34.772Z,96.45
2022-09-25T07:45:36.774Z,96.07
2022-09-25T07:47:38.205Z,95.65
2022-09-25T07:49:40.166Z,95.56
2022-09-25T07:51:41.640Z,94.36
2022-09-25T07:53:44.087Z,93.30
2022-09-25T07:55:46.781Z,94.01
2022-09-25T07:57:49.405Z,91.94
2022-09-25T07:59:50.913Z,90.49
2022-09-25T08:01:54.078Z,91.63
2022-09-25T08:03:55.843Z,92.02
2022-09-25T08:06:02.921Z,91.53
2022-09-25T08:08:04.407Z,85.83
2022-09-25T08:10:06.606Z,83.52
2022-09-25T08:12:11.565Z,87.56
2022-09-25T08:14:14.421Z,89.15
2022-09-25T08:16:18.125Z,89.72
2022-09-25T08:18:19.614Z,87.92
2022-09-25T08:20:21.292Z,77.36
2022-09-25T08:22:22.999Z,75.98
2022-09-25T08:24:24.443Z,78.60
2022-09-25T08:26:28.159Z,80.01
2022-09-25T08:28:29.939Z,79.08
2022-09-25T08:30:32.946Z,74.72
2022-09-25T08:32:34.632Z,76.68
2022-09-25T08:34:40.982Z,80.27
2022-09-25T08:36:42.850Z,80.83
2022-09-25T08:38:44.372Z,73.21
2022-09-25T08:40:59.603Z,74.19
2022-09-25T08:43:01.221Z,75.31
2022-09-25T08:45:36.502Z,72.72
2022-09-25T08:47:57.165Z,73.25
2022-09-25T08:50:01.743Z,75.47
2022-09-25T08:52:08.418Z,78.48
2022-09-25T08:54:20.900Z,74.85
2022-09-25T08:56:24.655Z,72.63
2022-09-25T08:58:29.800Z,72.10
2022-09-25T09:00:31.782Z,72.45
2022-09-25T09:02:46.992Z,71.63
2022-09-25T09:04:51.276Z,71.47
2022-09-25T09:07:25.142Z,72.34
2022-09-25T09:09:29.846Z,73.55
2022-09-25T09:11:37.804Z,72.04
2022-09-25T09:14:00.207Z,72.28
2022-09-25T09:16:02.101Z,71.81
2022-09-25T09:18:25.182Z,71.80
2022-09-25T09:20:55.512Z,71.77
2022-09-25T09:22:59.924Z,72.62
2022-09-25T09:25:17.626Z,71.94
2022-09-25T09:27:36.091Z,71.82
2022-09-25T09:30:04.517Z,71.63
2022-09-25T09:32:28.805Z,71.56
2022-09-25T09:35:07.603Z,74.34
2022-09-25T09:37:25.069Z,72.80
2022-09-25T09:39:36.286Z,71.60
2022-09-25T09:41:49.497Z,72.03
2022-09-25T09:44:13.235Z,70.72
2022-09-25T09:46:49.121Z,71.40
2022-09-25T09:49:13.644Z,70.93
2022-09-25T09:51:23.258Z,70.87
2022-09-25T09:53:37.134Z,70.92
2022-09-25T09:55:48.017Z,72.72
2022-09-25T09:57:53.301Z,70.46
2022-09-25T10:00:05.326Z,70.18
2022-09-25T10:02:37.630Z,72.15
2022-09-25T10:04:41.278Z,69.38
2022-09-25T10:06:50.070Z,69.67
2022-09-25T10:08:51.659Z,69.25
2022-09-25T10:10:54.881Z,69.47
2022-09-25T10:13:06.516Z,69.31
2022-09-25T10:15:18.812Z,69.60
2022-09-25T10:17:23.509Z,71.90
2022-09-25T10:19:28.135Z,74.35
2022-09-25T10:22:03.319Z,76.12
2022-09-25T10:24:05.070Z,77.54
2022-09-25T10:26:26.965Z,78.30
2022-09-25T10:28:35.921Z,78.31
2022-09-25T10:30:46.488Z,78.48
2022-09-25T10:33:13.455Z,78.79
2022-09-25T10:35:20.435Z,79.63
2022-09-25T10:37:22.563Z,80.13
2022-09-25T10:39:45.311Z,80.17
2022-09-25T10:41:47.310Z,79.36
2022-09-25T10:44:02.200Z,79.51
2022-09-25T10:46:15.104Z,79.27
2022-09-25T10:48:55.925Z,78.52
2022-09-25T10:51:08.840Z,77.79
2022-09-25T10:53:36.550Z,75.80
2022-09-25T10:55:43.897Z,76.40
2022-09-25T10:57:47.798Z,75.99
2022-09-25T10:59:51.290Z,74.86
2022-09-25T11:01:54.833Z,74.96
2022-09-25T11:03:58.291Z,74.28
2022-09-25T11:06:18.529Z,73.10
2022-09-25T11:08:23.718Z,72.25
2022-09-25T11:10:35.524Z,72.34
2022-09-25T11:12:39.511Z,73.04
2022-09-25T11:14:51.346Z,72.29
2022-09-25T11:16:55.344Z,72.58
2022-09-25T11:19:11.301Z,71.88
2022-09-25T11:21:37.934Z,71.17
2022-09-25T11:23:57.236Z,72.21
2022-09-25T11:26:12.769Z,72.08
2022-09-25T11:28:23.903Z,72.37
2022-09-25T11:30:32.373Z,72.75
2022-09-25T11:32:52.460Z,73.25
2022-09-25T11:35:06.577Z,73.02
2022-09-25T11:37:29.758Z,72.90
2022-09-25T11:40:19.048Z,73.20
2022-09-25T11:42:40.951Z,73.52
2022-09-25T11:44:54.156Z,73.72
2022-09-25T11:47:53.534Z,73.67
2022-09-25T11:49:58.511Z,73.83
2022-09-25T11:52:42.586Z,74.61
2022-09-25T11:55:11.797Z,74.98
2022-09-25T11:57:34.203Z,74.79
2022-09-25T11:59:51.156Z,74.55
2022-09-25T12:02:09.437Z,75.06
2022-09-25T12:04:36.998Z,76.05
2022-09-25T12:06:42.701Z,76.34
2022-09-25T12:08:50.513Z,76.57
2022-09-25T12:11:04.863Z,76.35
2022-09-25T12:13:27.972Z,76.15
2022-09-25T12:15:50.892Z,76.73
2022-09-25T12:18:34.010Z,77.37
2022-09-25T12:20:57.689Z,77.05
2022-09-25T12:23:17.997Z,77.28
2022-09-25T12:25:34.711Z,77.15
2022-09-25T12:27:55.940Z,75.92
2022-09-25T12:30:11.906Z,76.96
2022-09-25T12:32:29.844Z,77.18
2022-09-25T12:35:01.061Z,76.51
2022-09-25T12:37:27.481Z,75.66
2022-09-25T12:39:33.945Z,75.28
2022-09-25T12:41:47.171Z,74.98
2022-09-25T12:43:54.655Z,75.03
2022-09-25T12:46:08.214Z,75.21
2022-09-25T12:48:18.624Z,75.52
2022-09-25T12:50:28.792Z,75.20
2022-09-25T12:52:45.418Z,75.14
2022-09-25T12:55:09.442Z,75.47
2022-09-25T12:57:38.635Z,75.20
2022-09-25T12:59:46.865Z,75.39
2022-09-25T13:02:09.121Z,74.86
2022-09-25T13:04:35.199Z,73.96
2022-09-25T13:06:45.596Z,72.56
2022-09-25T13:08:58.511Z,72.14
2022-09-25T13:11:27.945Z,72.58
2022-09-25T13:13:32.552Z,73.43
2022-09-25T13:15:37.276Z,73.75
2022-09-25T13:17:40.021Z,73.50
2022-09-25T13:19:41.785Z,73.90
2022-09-25T13:21:43.424Z,73.35
2022-09-25T13:23:50.233Z,73.32
2022-09-25T13:26:00.931Z,73.98
2022-09-25T13:28:08.021Z,73.68
2022-09-25T13:30:28.444Z,73.77
2022-09-25T13:32:35.709Z,73.93
2022-09-25T13:34:39.715Z,73.65
2022-09-25T13:36:44.199Z,72.59
2022-09-25T13:39:04.887Z,71.37
2022-09-25T13:41:12.770Z,71.30
2022-09-25T13:43:26.823Z,69.31
2022-09-25T13:45:34.261Z,67.69
2022-09-25T13:47:36.565Z,66.33
2022-09-25T13:49:50.489Z,66.06
2022-09-25T13:51:51.907Z,66.00
2022-09-25T13:54:03.158Z,63.88
2022-09-25T13:56:12.378Z,63.63
2022-09-25T13:58:18.746Z,64.90
2022-09-25T14:00:20.262Z,64.02
2022-09-25T14:02:42.022Z,64.52
2022-09-25T14:04:48.603Z,65.72
2022-09-25T14:06:58.093Z,65.43
2022-09-25T14:09:09.305Z,65.81
2022-09-25T14:11:16.602Z,65.67
2022-09-25T14:13:23.646Z,65.52
2022-09-25T14:15:38.218Z,66.01
2022-09-25T14:17:42.933Z,65.99
2022-09-25T14:19:49.007Z,65.95
2022-09-25T14:21:51.182Z,66.49
2022-09-25T14:23:58.219Z,66.33
2022-09-25T14:26:02.507Z,66.22
2022-09-25T14:28:20.312Z,66.53
2022-09-25T14:30:21.915Z,67.12
2022-09-25T14:32:55.049Z,67.28
2022-09-25T14:35:06.384Z,68.36
2022-09-25T14:37:39.555Z,68.47
2022-09-25T14:39:54.094Z,68.24
2022-09-25T14:42:13.137Z,68.00
2022-09-25T14:44:34.389Z,67.54
2022-09-25T14:46:36.015Z,67.47
2022-09-25T14:48:39.328Z,67.32
2022-09-25T14:50:52.311Z,66.96
2022-09-25T14:52:58.094Z,67.44
2022-09-25T14:55:00.666Z,67.62
2022-09-25T14:57:05.435Z,66.95
2022-09-25T14:59:19.694Z,66.32
2022-09-25T15:01:29.645Z,65.97
2022-09-25T15:03:33.548Z,66.32
2022-09-25T15:05:35.912Z,65.84
2022-09-25T15:07:42.817Z,65.73
2022-09-25T15:09:49.921Z,64.64
2022-09-25T15:11:54.642Z,64.50
2022-09-25T15:14:10.617Z,65.59
2022-09-25T15:16:40.519Z,63.96
2022-09-25T15:18:44.287Z,63.37
2022-09-25T15:20:48.503Z,66.33
2022-09-25T15:22:58.582Z,68.20
2022-09-25T15:25:03.986Z,66.47
2022-09-25T15:27:07.439Z,64.31
2022-09-25T15:29:20.971Z,64.69
2022-09-25T15:31:23.015Z,63.22
2022-09-25T15:33:29.273Z,62.02
2022-09-25T15:35:30.822Z,63.07
2022-09-25T15:37:32.521Z,62.58
2022-09-25T15:39:41.166Z,66.29
2022-09-25T15:41:43.328Z,66.38
2022-09-25T15:43:44.865Z,66.93
2022-09-25T15:45:52.527Z,66.45
2022-09-25T15:47:54.470Z,64.87
2022-09-25T15:49:55.967Z,64.23
2022-09-25T15:52:01.335Z,64.04
2022-09-25T15:54:17.229Z,63.94
2022-09-25T15:56:26.110Z,64.13
2022-09-25T15:58:27.634Z,64.60
2022-09-25T16:00:47.617Z,64.68
2022-09-25T16:03:18.264Z,65.30
2022-09-25T16:05:27.849Z,66.06
2022-09-25T16:07:30.725Z,66.20
2022-09-25T16:09:34.133Z,66.44
2022-09-25T16:11:36.093Z,66.93
2022-09-25T16:13:40.996Z,66.89
2022-09-25T16:15:46.819Z,67.34
2022-09-25T16:17:48.319Z,67.63
2022-09-25T16:20:24.623Z,67.98
2022-09-25T16:22:26.925Z,68.03
2022-09-25T16:24:29.949Z,68.17
2022-09-25T16:26:44.317Z,68.33
2022-09-25T16:28:52.520Z,68.14
2022-09-25T16:31:04.122Z,68.62
2022-09-25T16:33:22.213Z,68.45
2022-09-25T16:36:08.918Z,69.11
2022-09-25T16:38:02.539Z,69.11
2022-09-25T16:40:29.151Z,69.54
2022-09-25T16:42:40.228Z,69.43
2022-09-25T16:44:46.951Z,70.10
2022-09-25T16:46:52.201Z,69.87
2022-09-25T16:49:01.924Z,70.23
2022-09-25T16:51:06.285Z,70.40
2022-09-25T16:53:08.761Z,70.58
2022-09-25T16:55:23.302Z,70.82
2022-09-25T16:57:27.847Z,71.09
2022-09-25T16:59:30.345Z,71.07
2022-09-25T17:01:31.972Z,71.50
2022-09-25T17:03:49.753Z,71.44
2022-09-25T17:05:51.318Z,71.91
2022-09-25T17:07:59.965Z,72.37
2022-09-25T17:10:02.258Z,73.18
2022-09-25T17:12:11.212Z,72.91
2022-09-25T17:14:24.472Z,73.89
2022-09-25T17:16:25.955Z,74.05
2022-09-25T17:18:27.632Z,74.22
2022-09-25T17:20:35.110Z,74.62
2022-09-25T17:22:36.663Z,75.13
2022-09-25T17:24:38.162Z,74.67
2022-09-25T17:26:40.274Z,74.83
2022-09-25T17:28:41.778Z,75.06
2022-09-25T17:30:44.585Z,75.26
2022-09-25T17:32:46.150Z,74.96
2022-09-25T17:34:47.804Z,74.69
2022-09-25T17:36:49.231Z,74.99
2022-09-25T17:38:50.726Z,75.90
2022-09-25T17:40:53.606Z,76.39
2022-09-25T17:42:55.156Z,76.10
2022-09-25T17:44:57.484Z,76.11
2022-09-25T17:46:59.542Z,76.78
2022-09-25T17:49:01.063Z,76.35
2022-09-25T17:51:12.419Z,76.12
2022-09-25T17:53:18.087Z,76.33
2022-09-25T17:55:20.816Z,76.71
2022-09-25T17:57:22.304Z,76.82
2022-09-25T17:59:23.725Z,76.41
2022-09-25T18:01:27.452Z,76.49
2022-09-25T18:03:30.889Z,76.60
2022-09-25T18:05:32.498Z,76.41
2022-09-25T18:07:34.063Z,76.60
2022-09-25T18:09:35.606Z,76.93
2022-09-25T18:11:37.063Z,76.73
2022-09-25T18:13:41.857Z,77.06
2022-09-25T18:15:57.891Z,77.08
2022-09-25T18:17:59.407Z,77.01
2022-09-25T18:20:19.646Z,76.91
2022-09-25T18:22:25.202Z,76.93
2022-09-25T18:24:26.840Z,77.13
2022-09-25T18:26:31.455Z,77.18
2022-09-25T18:28:33.242Z,77.59
2022-09-25T18:30:35.241Z,77.25
2022-09-25T18:32:36.702Z,77.49
2022-09-25T18:34:38.161Z,77.80
2022-09-25T18:36:39.780Z,77.56
2022-09-25T18:38:41.833Z,77.54
2022-09-25T18:40:43.392Z,77.89
2022-09-25T18:42:46.244Z,77.62
2022-09-25T18:44:47.788Z,77.86
2022-09-25T18:46:51.102Z,77.98
2022-09-25T18:48:53.602Z,78.13
2022-09-25T18:50:55.223Z,78.08
2022-09-25T18:52:56.661Z,77.92
2022-09-25T18:55:00.355Z,78.09
2022-09-25T18:57:01.852Z,77.76
2022-09-25T18:59:05.679Z,78.43
2022-09-25T19:01:07.454Z,78.14
2022-09-25T19:03:09.131Z,77.94
2022-09-25T19:05:11.323Z,78.28
2022-09-25T19:07:12.807Z,78.11
2022-09-25T19:09:16.916Z,78.28
2022-09-25T19:11:19.039Z,78.35
2022-09-25T19:13:20.665Z,78.50
2022-09-25T19:15:22.131Z,78.35
2022-09-25T19:17:23.598Z,78.51
2022-09-25T19:19:25.028Z,78.45
2022-09-25T19:21:27.381Z,78.87
2022-09-25T19:23:28.944Z,78.76
2022-09-25T19:25:30.388Z,78.52
2022-09-25T19:27:31.891Z,78.46
2022-09-25T19:29:36.538Z,78.69
2022-09-25T19:31:38.079Z,78.68
2022-09-25T19:33:40.118Z,78.90
2022-09-25T19:35:41.570Z,78.71
2022-09-25T19:37:43.038Z,78.67
2022-09-25T19:40:03.664Z,78.89
2022-09-25T19:42:05.278Z,78.67
2022-09-25T19:44:13.371Z,78.84
2022-09-25T19:46:19.922Z,78.89
2022-09-25T19:48:23.193Z,78.81
2022-09-25T19:50:24.880Z,78.85
2022-09-25T19:52:26.456Z,78.69
2022-09-25T19:54:28.161Z,78.42
2022-09-25T19:56:29.742Z,78.92
2022-09-25T19:58:36.124Z,78.89
2022-09-25T20:00:42.202Z,78.81
2022-09-25T20:02:47.622Z,78.86
2022-09-25T20:04:49.213Z,79.11
2022-09-25T20:06:50.795Z,79.14
2022-09-25T20:09:00.891Z,79.02
2022-09-25T20:11:12.269Z,79.06
2022-09-25T20:13:13.715Z,78.88
2022-09-25T20:15:15.231Z,79.27
2022-09-25T20:17:16.718Z,79.37
2022-09-25T20:19:19.268Z,79.35
2022-09-25T20:21:21.947Z,79.31
2022-09-25T20:23:23.380Z,79.26
2022-09-25T20:25:27.980Z,79.26
2022-09-25T20:27:29.490Z,79.30
2022-09-25T20:29:30.983Z,78.81
2022-09-25T20:31:32.822Z,79.00
2022-09-25T20:33:38.060Z,78.90
2022-09-25T20:35:39.553Z,79.12
2022-09-25T20:37:44.434Z,79.35
2022-09-25T20:39:45.915Z,79.50
2022-09-25T20:41:48.105Z,79.51
2022-09-25T20:43:51.813Z,79.83
2022-09-25T20:46:05.587Z,79.12
2022-09-25T20:48:07.063Z,79.49
2022-09-25T20:50:09.368Z,79.59
2022-09-25T20:52:12.376Z,79.11
2022-09-25T20:54:14.186Z,79.08
2022-09-25T20:56:16.006Z,79.56
2022-09-25T20:58:18.650Z,79.35
2022-09-25T21:00:20.123Z,78.62
2022-09-25T21:02:21.686Z,79.25
2022-09-25T21:04:23.350Z,79.23
2022-09-25T21:06:27.668Z,78.81
2022-09-25T21:08:31.117Z,79.26
2022-09-25T21:10:36.993Z,79.05
2022-09-25T21:12:38.470Z,78.62
2022-09-25T21:14:39.914Z,79.12
2022-09-25T21:16:41.420Z,79.02
2022-09-25T21:18:43.285Z,78.96
2022-09-25T21:20:44.743Z,79.03
2022-09-25T21:22:47.568Z,79.40
2022-09-25T21:24:50.021Z,79.92
2022-09-25T21:26:51.597Z,80.60
2022-09-25T21:28:55.646Z,80.91
2022-09-25T21:31:05.757Z,80.91
2022-09-25T21:33:07.633Z,80.72
2022-09-25T21:35:09.954Z,80.60
2022-09-25T21:37:11.365Z,81.62
2022-09-25T21:39:13.347Z,81.79
2022-09-25T21:41:18.609Z,82.32
2022-09-25T21:43:20.702Z,82.14
2022-09-25T21:45:22.266Z,82.34
2022-09-25T21:47:23.745Z,82.35
2022-09-25T21:49:25.172Z,83.17
2022-09-25T21:51:33.374Z,83.05
2022-09-25T21:53:35.642Z,84.10
2022-09-25T21:55:37.114Z,84.54
2022-09-25T21:57:38.631Z,83.67
2022-09-25T21:59:41.297Z,84.42
2022-09-25T22:01:42.950Z,84.87
2022-09-25T22:03:49.842Z,85.48
2022-09-25T22:05:58.451Z,86.11
2022-09-25T22:07:59.873Z,85.27
2022-09-25T22:10:01.393Z,83.78
2022-09-25T22:12:02.923Z,82.74
2022-09-25T22:14:05.811Z,84.07
2022-09-25T22:16:29.357Z,85.42
2022-09-25T22:18:33.351Z,84.74
2022-09-25T22:20:38.200Z,83.95
2022-09-25T22:22:39.616Z,83.91
2022-09-25T22:24:41.072Z,85.18
2022-09-25T22:26:44.494Z,86.64
2022-09-25T22:28:46.580Z,85.14
2022-09-25T22:30:48.146Z,85.90
2022-09-25T22:32:49.581Z,87.34
2022-09-25T22:34:51.000Z,87.74
2022-09-25T22:36:58.964Z,88.91
2022-09-25T22:39:01.369Z,89.10
2022-09-25T22:41:08.781Z,89.86
2022-09-25T22:43:10.181Z,90.58
2022-09-25T22:45:11.862Z,90.58
2022-09-25T22:47:13.279Z,90.60
2022-09-25T22:49:14.750Z,90.33
2022-09-25T22:51:18.894Z,90.73
2022-09-25T22:53:21.709Z,91.44
2022-09-25T22:55:26.064Z,91.00
2022-09-25T22:57:28.347Z,91.25
2022-09-25T22:59:29.846Z,91.75
2022-09-25T23:01:41.804Z,91.02
2022-09-25T23:03:43.334Z,91.44
2022-09-25T23:05:45.354Z,91.35
2022-09-25T23:07:48.642Z,91.78
2022-09-25T23:09:50.087Z,91.28
2022-09-25T23:11:52.903Z,91.74
2022-09-25T23:14:02.973Z,91.98
2022-09-25T23:16:07.374Z,92.05
2022-09-25T23:18:08.812Z,91.96
2022-09-25T23:20:10.257Z,92.47
2022-09-25T23:22:11.775Z,92.28
2022-09-25T23:24:16.801Z,92.81
2022-09-25T23:26:18.303Z,92.91
2022-09-25T23:28:19.795Z,93.37
2022-09-25T23:30:21.443Z,93.49
2022-09-25T23:32:22.934Z,93.44
2022-09-25T23:34:24.381Z,93.74
2022-09-25T23:36:27.220Z,93.38
2022-09-25T23:38:30.051Z,93.36
2022-09-25T23:40:31.691Z,93.90
2022-09-25T23:42:33.182Z,94.19
2022-09-25T23:44:35.347Z,94.17
2022-09-25T23:46:39.857Z,94.68
2022-09-25T23:48:42.369Z,94.23
2022-09-25T23:50:44.024Z,94.36
2022-09-25T23:52:45.465Z,94.46
2022-09-25T23:54:47.279Z,94.72
2022-09-25T23:56:48.770Z,94.89
2022-09-25T23:58:50.958Z,94.68
